Time;durP1;ratioP1;P1;durP2;ratioP2;P2;SDS_P1;SDS_P2;PMS_P1;PMS_P2;Temp;Humidity;BMP_temperature;BMP_pressure;BME280_temperature;BME280_humidity;BME280_pressure;Samples;Min_cycle;Max_cycle;Signal;HPM_P1;HPM_P2
2021/05/03 00:01:14;;;;;;;6.40;4.83;;;4.80;99.90;;;;;;5140104;27;20161;-79
2021/05/03 00:03:40;;;;;;;5.93;4.80;;;4.80;99.90;;;;;;5141319;27;20141;-79
2021/05/03 00:06:06;;;;;;;6.73;5.90;;;4.70;99.90;;;;;;5158514;27;20179;-78
2021/05/03 00:08:32;;;;;;;14.23;4.50;;;4.60;99.90;;;;;;5152765;27;20434;-81
2021/05/03 00:10:58;;;;;;;9.10;4.43;;;4.80;99.90;;;;;;5150184;27;20187;-81
2021/05/03 00:13:25;;;;;;;4.60;4.20;;;4.80;99.90;;;;;;5130934;27;20225;-81
2021/05/03 00:15:52;;;;;;;5.20;4.70;;;4.90;99.90;;;;;;5131478;27;20158;-81
2021/05/03 00:18:18;;;;;;;4.70;4.30;;;4.80;99.90;;;;;;5148595;27;20374;-80
2021/05/03 00:20:45;;;;;;;6.03;5.17;;;4.80;99.90;;;;;;5130690;27;20387;-80
2021/05/03 00:23:12;;;;;;;4.83;3.60;;;4.70;99.90;;;;;;5129832;27;20395;-80
2021/05/03 00:25:38;;;;;;;7.70;4.80;;;4.70;99.90;;;;;;5130488;27;20443;-81
2021/05/03 00:28:04;;;;;;;6.30;5.63;;;4.60;99.90;;;;;;5152925;27;20394;-79
2021/05/03 00:30:30;;;;;;;5.20;4.17;;;4.80;99.90;;;;;;5123504;27;20377;-79
2021/05/03 00:32:56;;;;;;;8.67;3.97;;;4.90;99.90;;;;;;5149562;27;20461;-81
2021/05/03 00:35:22;;;;;;;5.17;4.07;;;5.00;99.90;;;;;;5131767;27;20511;-81
2021/05/03 00:37:48;;;;;;;6.83;4.87;;;4.80;99.90;;;;;;5149598;27;20405;-81
2021/05/03 00:40:14;;;;;;;6.23;3.47;;;4.80;99.90;;;;;;5131646;27;20392;-81
2021/05/03 00:42:42;;;;;;;5.70;5.20;;;4.80;99.90;;;;;;5149051;27;20176;-81
2021/05/03 00:45:12;;;;;;;5.03;4.60;;;4.90;99.90;;;;;;5130369;27;20431;-80
2021/05/03 00:47:39;;;;;;;6.27;4.80;;;5.20;99.90;;;;;;5130630;27;20395;-81
2021/05/03 00:50:07;;;;;;;7.17;5.50;;;5.20;99.90;;;;;;5129200;27;20369;-81
2021/05/03 00:52:33;;;;;;;5.93;5.43;;;4.80;99.90;;;;;;5148090;27;20542;-81
2021/05/03 00:54:59;;;;;;;6.13;5.50;;;4.60;99.90;;;;;;5129346;27;20878;-80
2021/05/03 00:57:25;;;;;;;4.40;4.10;;;4.50;99.90;;;;;;5147769;27;20158;-81
2021/05/03 00:59:52;;;;;;;4.17;3.43;;;4.40;99.90;;;;;;5129485;27;20222;-81
2021/05/03 01:02:17;;;;;;;7.63;4.63;;;4.30;99.90;;;;;;5130063;27;20369;-81
2021/05/03 01:04:43;;;;;;;4.87;4.27;;;4.20;99.90;;;;;;5148289;27;20366;-81
2021/05/03 01:07:09;;;;;;;6.80;4.77;;;4.20;99.90;;;;;;5128776;27;20330;-81
2021/05/03 01:09:35;;;;;;;6.90;5.20;;;4.20;99.90;;;;;;5147830;27;20415;-80
2021/05/03 01:12:02;;;;;;;4.87;4.10;;;4.20;99.90;;;;;;5147614;27;20438;-81
2021/05/03 01:14:28;;;;;;;8.80;5.27;;;4.00;99.90;;;;;;5147009;27;20166;-81
2021/05/03 01:16:55;;;;;;;5.20;4.70;;;4.00;99.90;;;;;;5148061;27;20891;-81
2021/05/03 01:19:21;;;;;;;5.87;5.30;;;3.90;99.90;;;;;;5147328;27;20365;-80
2021/05/03 01:21:48;;;;;;;8.27;5.13;;;3.80;99.90;;;;;;5147784;27;20974;-81
2021/05/03 01:24:16;;;;;;;7.17;4.50;;;3.80;99.90;;;;;;5095213;27;20161;-81
2021/05/03 01:26:42;;;;;;;7.00;4.73;;;3.80;99.90;;;;;;5129210;27;20381;-81
2021/05/03 01:29:08;;;;;;;5.03;4.37;;;3.70;99.90;;;;;;5147635;27;20429;-81
2021/05/03 01:31:34;;;;;;;5.77;5.10;;;3.90;99.90;;;;;;5128833;27;20420;-81
2021/05/03 01:34:05;;;;;;;5.10;4.60;;;3.80;99.90;;;;;;5147793;27;20425;-81
2021/05/03 01:36:31;;;;;;;5.63;4.30;;;3.80;99.90;;;;;;5147159;27;20503;-81
2021/05/03 01:38:57;;;;;;;4.90;4.37;;;3.80;99.90;;;;;;5147530;27;20490;-81
2021/05/03 01:41:22;;;;;;;4.90;4.30;;;4.10;99.90;;;;;;5147956;27;20165;-81
2021/05/03 01:43:48;;;;;;;6.00;5.17;;;3.90;99.90;;;;;;5147129;27;20470;-81
2021/05/03 01:46:14;;;;;;;5.77;4.90;;;3.80;99.90;;;;;;5147922;27;20273;-81
2021/05/03 01:48:41;;;;;;;5.37;4.87;;;3.80;99.90;;;;;;5147535;27;20161;-81
2021/05/03 01:51:07;;;;;;;9.80;5.93;;;3.70;99.90;;;;;;5151973;27;20370;-81
2021/05/03 01:53:32;;;;;;;5.53;4.70;;;3.80;99.90;;;;;;5150769;27;20464;-80
2021/05/03 01:55:59;;;;;;;5.30;4.90;;;3.70;99.90;;;;;;5134839;27;20392;-78
2021/05/03 01:58:26;;;;;;;7.13;4.30;;;3.60;99.90;;;;;;5154110;27;20154;-78
2021/05/03 02:00:52;;;;;;;4.80;4.40;;;3.60;99.90;;;;;;5152077;27;20429;-77
2021/05/03 02:03:21;;;;;;;5.50;5.00;;;3.50;99.90;;;;;;5152599;27;20387;-81
2021/05/03 02:05:47;;;;;;;4.90;4.43;;;3.40;99.90;;;;;;5129342;27;20380;-81
2021/05/03 02:08:13;;;;;;;5.87;5.27;;;3.50;99.90;;;;;;5112043;27;20417;-81
2021/05/03 02:10:40;;;;;;;7.63;4.87;;;3.50;99.90;;;;;;5111808;27;20464;-81
2021/05/03 02:13:06;;;;;;;6.03;4.80;;;3.40;99.90;;;;;;5147079;27;20417;-81
2021/05/03 02:15:33;;;;;;;4.63;4.33;;;3.30;99.90;;;;;;5146733;28;20376;-80
2021/05/03 02:17:59;;;;;;;8.40;4.90;;;3.40;99.90;;;;;;5128647;28;20366;-80
2021/05/03 02:20:24;;;;;;;4.53;4.03;;;3.40;99.90;;;;;;5146735;28;20381;-80
2021/05/03 02:22:50;;;;;;;5.77;5.20;;;3.30;99.90;;;;;;5128441;28;20391;-79
2021/05/03 02:25:16;;;;;;;4.10;3.70;;;3.30;99.90;;;;;;5147095;28;20168;-81
2021/05/03 02:27:42;;;;;;;6.33;5.07;;;3.40;99.90;;;;;;5147378;28;20174;-81
2021/05/03 02:30:10;;;;;;;7.47;5.70;;;3.50;99.90;;;;;;5147777;28;20412;-81
2021/05/03 02:32:37;;;;;;;6.33;5.20;;;3.50;99.90;;;;;;5128510;28;20200;-81
2021/05/03 02:35:05;;;;;;;7.40;4.43;;;3.50;99.90;;;;;;5128704;28;20365;-80
2021/05/03 02:37:31;;;;;;;7.17;6.10;;;3.40;99.90;;;;;;5147328;28;20411;-81
2021/05/03 02:39:57;;;;;;;5.93;5.07;;;3.50;99.90;;;;;;5128969;28;20358;-81
2021/05/03 02:42:23;;;;;;;4.97;4.33;;;3.40;99.90;;;;;;5128744;28;20187;-80
2021/05/03 02:44:49;;;;;;;7.10;4.90;;;3.30;99.90;;;;;;5128173;28;20228;-81
2021/05/03 02:47:15;;;;;;;7.67;5.87;;;3.20;99.90;;;;;;5129471;28;20365;-81
2021/05/03 02:49:41;;;;;;;7.20;5.60;;;3.20;99.90;;;;;;5147307;28;20167;-81
2021/05/03 02:52:06;;;;;;;7.77;5.47;;;3.10;99.90;;;;;;5151711;28;20288;-78
2021/05/03 02:54:32;;;;;;;9.20;5.80;;;3.20;99.90;;;;;;5137290;28;20610;-78
2021/05/03 02:56:58;;;;;;;5.93;4.90;;;3.20;99.90;;;;;;5154742;28;20421;-78
2021/05/03 02:59:24;;;;;;;5.83;5.30;;;3.20;99.90;;;;;;5154357;28;20167;-79
2021/05/03 03:01:53;;;;;;;5.87;5.33;;;3.00;99.90;;;;;;5132151;28;20225;-81
2021/05/03 03:04:19;;;;;;;5.13;4.57;;;3.10;99.90;;;;;;5145649;28;20398;-81
2021/05/03 03:06:45;;;;;;;4.97;4.57;;;3.10;99.90;;;;;;5147123;28;20369;-80
2021/05/03 03:09:10;;;;;;;8.43;6.43;;;3.10;99.90;;;;;;5128262;28;20203;-79
2021/05/03 03:11:37;;;;;;;6.57;4.47;;;3.20;99.90;;;;;;5094832;27;20396;-80
2021/05/03 03:14:03;;;;;;;5.20;4.00;;;3.10;99.90;;;;;;5149695;27;20161;-80
2021/05/03 03:16:31;;;;;;;5.53;5.00;;;3.00;99.90;;;;;;5131261;27;20623;-80
2021/05/03 03:18:58;;;;;;;5.70;5.10;;;3.20;99.90;;;;;;5148903;27;20366;-79
2021/05/03 03:21:25;;;;;;;5.23;4.77;;;3.10;99.90;;;;;;5149852;27;20375;-79
2021/05/03 03:23:51;;;;;;;7.73;5.10;;;3.00;99.90;;;;;;5149151;27;20365;-81
2021/05/03 03:26:17;;;;;;;5.90;4.70;;;2.90;99.90;;;;;;5131090;27;20395;-81
2021/05/03 03:28:43;;;;;;;5.47;4.97;;;2.80;99.90;;;;;;5149397;27;20404;-79
2021/05/03 03:31:09;;;;;;;4.50;4.10;;;2.90;99.90;;;;;;5148951;27;20709;-81
2021/05/03 03:33:35;;;;;;;5.20;4.60;;;3.00;99.90;;;;;;5131094;27;20154;-81
2021/05/03 03:36:01;;;;;;;4.97;4.50;;;2.90;99.90;;;;;;5150349;27;20391;-80
2021/05/03 03:38:27;;;;;;;6.00;5.23;;;3.00;99.90;;;;;;5160158;27;20373;-78
2021/05/03 03:40:53;;;;;;;9.20;4.63;;;3.00;99.90;;;;;;5156574;27;20268;-81
2021/05/03 03:43:18;;;;;;;7.23;6.40;;;3.10;99.90;;;;;;5133583;27;20542;-81
2021/05/03 03:45:44;;;;;;;6.87;4.70;;;3.00;99.90;;;;;;5150720;27;20158;-81
2021/05/03 03:48:10;;;;;;;5.37;4.90;;;2.90;99.90;;;;;;5150736;27;20157;-80
2021/05/03 03:50:37;;;;;;;6.30;5.70;;;3.00;99.90;;;;;;5114518;27;20154;-81
2021/05/03 03:53:03;;;;;;;6.87;6.17;;;3.10;99.90;;;;;;5149406;27;20443;-81
2021/05/03 03:55:30;;;;;;;5.57;5.00;;;3.10;99.90;;;;;;5130843;27;20362;-81
2021/05/03 03:57:56;;;;;;;6.47;4.60;;;3.00;99.90;;;;;;5130717;27;20493;-80
2021/05/03 04:00:22;;;;;;;6.23;5.10;;;2.90;99.90;;;;;;5130305;27;20431;-81
2021/05/03 04:02:50;;;;;;;5.30;4.80;;;3.00;99.90;;;;;;5130472;27;20162;-80
2021/05/03 04:05:47;;;;;;;5.73;5.23;;;3.10;99.90;;;;;;5149155;27;20397;-81
2021/05/03 04:08:17;;;;;;;7.13;6.07;;;3.00;99.90;;;;;;5133368;27;20444;-81
2021/05/03 04:10:51;;;;;;;7.40;4.83;;;3.10;99.90;;;;;;5118101;27;20854;-81
2021/05/03 04:13:44;;;;;;;6.70;4.40;;;3.20;99.90;;;;;;5114394;27;20550;-80
2021/05/03 04:21:47;;;;;;;4.93;4.50;;;3.10;99.90;;;;;;5148499;27;20365;-81
2021/05/03 04:24:20;;;;;;;9.50;5.67;;;3.20;99.90;;;;;;5130070;27;20794;-81
2021/05/03 04:26:46;;;;;;;6.67;4.53;;;3.00;99.90;;;;;;5149208;27;20391;-80
2021/05/03 04:29:12;;;;;;;5.73;5.20;;;3.10;99.90;;;;;;5131059;27;20414;-81
2021/05/03 04:31:38;;;;;;;6.67;5.47;;;3.30;99.90;;;;;;5113647;27;20204;-81
2021/05/03 04:34:04;;;;;;;5.27;4.63;;;3.40;99.90;;;;;;5130491;27;20161;-81
2021/05/03 04:36:30;;;;;;;7.20;5.40;;;3.40;99.90;;;;;;5149660;27;20153;-81
2021/05/03 04:38:56;;;;;;;7.80;5.63;;;3.50;99.90;;;;;;5097213;27;20433;-81
2021/05/03 04:41:22;;;;;;;5.77;4.67;;;3.50;99.90;;;;;;5132297;27;20385;-80
2021/05/03 04:43:48;;;;;;;5.07;4.13;;;3.50;99.90;;;;;;5132612;27;20240;-80
2021/05/03 04:46:16;;;;;;;9.43;6.30;;;3.60;99.90;;;;;;5134013;27;20179;-81
2021/05/03 04:48:43;;;;;;;9.03;4.97;;;3.70;99.90;;;;;;5113598;27;20395;-81
2021/05/03 04:51:09;;;;;;;9.20;5.53;;;3.60;99.90;;;;;;5130337;27;20400;-81
2021/05/03 04:53:35;;;;;;;7.13;4.70;;;3.90;99.90;;;;;;5112889;27;20363;-81
2021/05/03 04:56:03;;;;;;;8.97;5.73;;;3.80;99.90;;;;;;5148442;27;20278;-81
2021/05/03 04:58:29;;;;;;;5.13;4.63;;;3.60;99.90;;;;;;5147650;27;20391;-80
2021/05/03 05:00:55;;;;;;;5.73;5.13;;;3.50;99.90;;;;;;5148495;27;20742;-81
2021/05/03 05:03:21;;;;;;;4.67;4.27;;;3.30;99.90;;;;;;5112704;27;20437;-80
2021/05/03 05:05:50;;;;;;;5.50;5.00;;;3.40;99.90;;;;;;5148168;27;20161;-81
2021/05/03 05:08:16;;;;;;;5.83;5.00;;;3.60;99.90;;;;;;5130316;27;20205;-81
2021/05/03 05:10:42;;;;;;;12.23;4.50;;;3.50;99.90;;;;;;5130033;27;20439;-80
2021/05/03 05:13:08;;;;;;;9.37;6.43;;;3.50;99.90;;;;;;5129425;27;20454;-80
2021/05/03 05:15:34;;;;;;;5.70;4.90;;;3.60;99.90;;;;;;5129856;27;20165;-80
2021/05/03 05:18:00;;;;;;;9.07;6.13;;;4.00;99.90;;;;;;5147917;27;20369;-80
2021/05/03 05:20:26;;;;;;;8.50;5.27;;;4.20;99.90;;;;;;5129563;27;20601;-80
2021/05/03 05:22:52;;;;;;;5.20;4.73;;;4.40;99.90;;;;;;5112886;27;20434;-81
2021/05/03 05:25:18;;;;;;;7.37;5.10;;;4.40;99.90;;;;;;5148250;27;20370;-83
2021/05/03 05:27:44;;;;;;;5.20;4.70;;;4.00;99.90;;;;;;5104521;28;20239;-81
2021/05/03 05:30:10;;;;;;;3.83;3.50;;;4.10;99.90;;;;;;5087849;28;20383;-80
2021/05/03 05:32:36;;;;;;;15.63;6.20;;;3.90;99.90;;;;;;5070400;28;20213;-81
2021/05/03 05:35:03;;;;;;;5.30;4.80;;;4.00;99.90;;;;;;5104115;28;20445;-81
2021/05/03 05:37:29;;;;;;;7.57;6.80;;;4.20;99.90;;;;;;5070721;28;20194;-81
2021/05/03 05:39:55;;;;;;;13.80;5.90;;;4.10;99.90;;;;;;5086942;28;20367;-81
2021/05/03 05:42:21;;;;;;;8.73;5.70;;;4.20;99.90;;;;;;5088893;28;20412;-80
2021/05/03 05:44:46;;;;;;;7.00;5.67;;;4.30;99.90;;;;;;5082109;28;20231;-81
2021/05/03 05:47:12;;;;;;;5.60;5.10;;;4.40;99.90;;;;;;5079522;28;20190;-81
2021/05/03 05:49:38;;;;;;;6.63;6.10;;;4.30;99.90;;;;;;5038784;28;20179;-81
2021/05/03 05:52:04;;;;;;;7.70;5.03;;;4.30;99.90;;;;;;5065695;28;20229;-81
2021/05/03 05:54:30;;;;;;;6.00;5.40;;;4.40;99.90;;;;;;5067318;28;20396;-81
2021/05/03 05:56:56;;;;;;;5.77;5.03;;;4.40;99.90;;;;;;5031843;28;20419;-81
2021/05/03 05:59:28;;;;;;;6.00;5.43;;;4.50;99.90;;;;;;5131367;27;20181;-81
2021/05/03 06:01:53;;;;;;;7.37;4.83;;;4.60;99.90;;;;;;5142526;27;20428;-81
2021/05/03 06:04:19;;;;;;;5.83;4.40;;;4.70;99.90;;;;;;5096652;27;20422;-82
2021/05/03 06:06:45;;;;;;;4.57;4.17;;;4.90;99.90;;;;;;5112649;28;20252;-82
2021/05/03 06:09:11;;;;;;;6.07;5.47;;;5.10;99.90;;;;;;5091639;28;20264;-81
2021/05/03 06:11:38;;;;;;;7.10;4.90;;;5.50;99.90;;;;;;5115168;28;20651;-81
2021/05/03 06:14:04;;;;;;;6.50;5.83;;;5.50;99.90;;;;;;5144825;28;20812;-77
2021/05/03 06:16:31;;;;;;;6.40;5.80;;;5.40;99.90;;;;;;5135070;28;20403;-77
2021/05/03 06:18:58;;;;;;;9.00;5.57;;;5.50;99.90;;;;;;5120235;28;20427;-77
2021/05/03 06:21:24;;;;;;;6.10;5.30;;;5.80;99.90;;;;;;5117612;28;20771;-79
2021/05/03 06:23:50;;;;;;;8.03;5.30;;;6.00;99.90;;;;;;5134895;28;20430;-81
2021/05/03 06:26:16;;;;;;;5.13;4.60;;;5.90;99.90;;;;;;5108688;28;20169;-81
2021/05/03 06:28:41;;;;;;;5.77;5.30;;;5.60;99.90;;;;;;5111354;28;20181;-81
2021/05/03 06:31:08;;;;;;;4.73;4.23;;;5.70;99.90;;;;;;5104146;28;20406;-81
2021/05/03 06:33:33;;;;;;;5.40;5.00;;;6.20;99.90;;;;;;5127302;28;20169;-81
2021/05/03 06:36:02;;;;;;;6.33;4.90;;;6.30;99.90;;;;;;5109531;28;20423;-81
2021/05/03 06:38:27;;;;;;;7.13;5.47;;;6.60;99.90;;;;;;5116409;28;20177;-81
2021/05/03 06:40:53;;;;;;;6.07;5.47;;;6.40;99.90;;;;;;5113827;28;20383;-81
2021/05/03 06:43:19;;;;;;;6.13;5.20;;;6.70;99.90;;;;;;5091211;28;20218;-80
2021/05/03 06:45:45;;;;;;;8.83;6.60;;;6.50;99.90;;;;;;5114765;28;20447;-78
2021/05/03 06:48:12;;;;;;;6.67;4.87;;;6.60;99.90;;;;;;5112765;28;20260;-81
2021/05/03 06:50:42;;;;;;;6.40;5.47;;;6.80;99.90;;;;;;5097402;28;20420;-81
2021/05/03 06:53:08;;;;;;;5.40;4.90;;;6.90;99.90;;;;;;5118665;28;20455;-81
2021/05/03 06:55:33;;;;;;;6.60;5.13;;;6.80;99.90;;;;;;5093172;28;20427;-81
2021/05/03 06:57:59;;;;;;;5.37;4.97;;;6.70;99.90;;;;;;5105884;28;20391;-81
2021/05/03 07:00:25;;;;;;;7.70;5.70;;;6.90;99.90;;;;;;5094030;28;20410;-80
2021/05/03 07:02:52;;;;;;;5.43;4.93;;;7.10;99.90;;;;;;5127301;28;20741;-81
2021/05/03 07:05:20;;;;;;;6.80;4.90;;;7.10;99.90;;;;;;5110725;28;20470;-81
2021/05/03 07:07:46;;;;;;;5.23;4.83;;;7.20;99.90;;;;;;5111325;28;20428;-80
2021/05/03 07:10:14;;;;;;;6.30;5.30;;;7.10;99.90;;;;;;5092686;28;20495;-81
2021/05/03 07:12:46;;;;;;;8.17;5.93;;;7.10;99.90;;;;;;5089542;28;20647;-81
2021/05/03 07:15:13;;;;;;;9.80;7.83;;;7.20;99.90;;;;;;5107723;28;20411;-81
2021/05/03 07:17:39;;;;;;;8.50;6.47;;;7.30;99.90;;;;;;5109295;28;20407;-81
2021/05/03 07:20:07;;;;;;;9.00;6.17;;;7.40;99.90;;;;;;5110075;28;20423;-81
2021/05/03 07:22:34;;;;;;;7.13;5.10;;;7.50;99.90;;;;;;5101749;28;20448;-81
2021/05/03 07:25:03;;;;;;;5.97;4.47;;;7.80;99.90;;;;;;5085780;28;20421;-81
2021/05/03 07:27:29;;;;;;;11.77;6.60;;;7.70;99.90;;;;;;5095949;28;20391;-81
2021/05/03 07:29:58;;;;;;;6.93;6.30;;;8.20;99.90;;;;;;5099825;28;20382;-79
2021/05/03 07:32:24;;;;;;;7.10;6.17;;;8.30;99.90;;;;;;5130140;28;20530;-80
2021/05/03 07:34:50;;;;;;;6.10;5.60;;;8.20;99.90;;;;;;5096330;27;20175;-78
2021/05/03 07:37:17;;;;;;;5.73;5.23;;;8.40;99.90;;;;;;5133931;28;20414;-79
2021/05/03 07:39:45;;;;;;;6.70;6.00;;;8.40;99.90;;;;;;5132494;27;20179;-79
2021/05/03 07:42:14;;;;;;;8.70;6.07;;;8.40;99.90;;;;;;5107065;28;20419;-79
2021/05/03 07:44:39;;;;;;;7.70;5.77;;;8.50;99.90;;;;;;5110278;28;20467;-81
2021/05/03 07:47:05;;;;;;;11.40;6.23;;;8.90;99.90;;;;;;5077416;28;20479;-80
2021/05/03 07:49:31;;;;;;;7.70;6.07;;;9.10;99.90;;;;;;5111978;27;20174;-80
2021/05/03 07:51:57;;;;;;;10.20;5.60;;;8.60;99.90;;;;;;5075997;28;20231;-80
2021/05/03 07:54:23;;;;;;;7.23;4.93;;;8.70;99.90;;;;;;5090230;28;20421;-80
2021/05/03 07:56:49;;;;;;;5.73;5.20;;;9.00;99.90;;;;;;5073363;28;20186;-80
2021/05/03 07:59:15;;;;;;;5.53;5.07;;;9.20;99.90;;;;;;5083451;28;20175;-80
2021/05/03 08:01:41;;;;;;;6.00;5.03;;;9.20;99.90;;;;;;5076104;28;20783;-81
2021/05/03 08:04:07;;;;;;;6.20;5.50;;;9.20;99.90;;;;;;5093966;28;20440;-81
2021/05/03 08:06:33;;;;;;;7.70;6.70;;;9.10;99.90;;;;;;5051385;28;20230;-80
2021/05/03 08:09:03;;;;;;;7.63;6.67;;;9.20;99.90;;;;;;5083283;28;21006;-80
2021/05/03 08:11:30;;;;;;;6.67;5.63;;;9.60;99.90;;;;;;5054655;28;20486;-80
2021/05/03 08:13:56;;;;;;;7.93;5.40;;;9.70;99.90;;;;;;5055445;28;20410;-80
2021/05/03 08:16:23;;;;;;;6.23;5.63;;;9.90;99.90;;;;;;5063188;28;20434;-82
2021/05/03 08:18:49;;;;;;;8.20;6.10;;;9.90;99.90;;;;;;5053960;28;20418;-82
2021/05/03 08:21:18;;;;;;;6.80;6.20;;;10.00;99.90;;;;;;5049920;28;20496;-80
2021/05/03 08:23:44;;;;;;;5.80;5.33;;;9.90;99.90;;;;;;5084982;28;20444;-80
2021/05/03 08:26:13;;;;;;;5.73;5.10;;;9.80;99.90;;;;;;5108286;28;20423;-80
2021/05/03 08:28:40;;;;;;;6.40;5.80;;;10.10;99.90;;;;;;5116973;28;20515;-81
2021/05/03 08:31:09;;;;;;;6.57;5.73;;;10.10;99.90;;;;;;5098059;28;20980;-80
2021/05/03 08:33:35;;;;;;;6.37;5.70;;;10.40;99.90;;;;;;5118956;28;20446;-82
2021/05/03 08:36:00;;;;;;;12.70;5.53;;;10.10;99.90;;;;;;5101434;27;20161;-81
2021/05/03 08:38:26;;;;;;;9.00;6.00;;;10.40;99.90;;;;;;5111710;28;20253;-81
2021/05/03 08:40:53;;;;;;;5.33;4.60;;;10.20;99.90;;;;;;5094356;28;20696;-79
2021/05/03 08:43:30;;;;;;;6.27;5.37;;;10.50;99.90;;;;;;5109159;28;20217;-81
2021/05/03 08:45:56;;;;;;;5.90;4.77;;;10.70;99.90;;;;;;5101215;28;20421;-81
2021/05/03 08:48:32;;;;;;;5.67;5.17;;;10.70;99.90;;;;;;5082994;28;20463;-81
2021/05/03 08:51:11;;;;;;;5.13;4.70;;;10.80;99.90;;;;;;5064822;28;20509;-81
2021/05/03 08:53:55;;;;;;;6.53;4.67;;;11.00;99.90;;;;;;4994283;28;20448;-81
2021/05/03 08:59:35;;;;;;;6.60;6.00;;;11.10;99.90;;;;;;5002572;28;20405;-85
2021/05/03 09:02:06;;;;;;;5.47;4.87;;;10.80;99.90;;;;;;4969175;28;20433;-83
2021/05/03 09:04:38;;;;;;;4.63;3.67;;;11.00;99.90;;;;;;4937066;29;20436;-83
2021/05/03 09:07:22;;;;;;;8.20;4.07;;;11.00;99.90;;;;;;4925357;29;20439;-81
2021/05/03 09:09:53;;;;;;;5.97;4.00;;;11.20;99.90;;;;;;4911507;29;20540;-81
2021/05/03 09:12:22;;;;;;;4.93;4.50;;;11.30;99.90;;;;;;4890771;29;20474;-83
2021/05/03 09:14:54;;;;;;;3.70;3.40;;;11.30;99.90;;;;;;4881991;29;20436;-83
2021/05/03 09:17:29;;;;;;;4.90;4.40;;;11.50;99.90;;;;;;4860401;29;20423;-79
2021/05/03 09:20:03;;;;;;;7.53;4.50;;;11.50;99.90;;;;;;4890382;29;20523;-82
2021/05/03 09:22:33;;;;;;;5.20;4.70;;;11.70;99.90;;;;;;4924391;29;20445;-82
2021/05/03 09:25:36;;;;;;;4.67;4.20;;;11.70;99.90;;;;;;4885798;29;20463;-80
2021/05/03 09:28:08;;;;;;;4.90;4.40;;;11.80;99.90;;;;;;4910241;29;20446;-83
2021/05/03 09:30:40;;;;;;;5.60;4.00;;;11.80;99.90;;;;;;4908969;29;20441;-80
2021/05/03 09:33:20;;;;;;;5.77;4.63;;;11.80;99.90;;;;;;4922650;29;20469;-81
2021/05/03 09:35:49;;;;;;;10.13;5.00;;;11.90;99.90;;;;;;4955157;29;20439;-80
2021/05/03 09:38:26;;;;;;;4.60;3.37;;;11.90;99.50;;;;;;4949466;29;20435;-82
2021/05/03 09:41:07;;;;;;;4.07;3.73;;;12.00;99.90;;;;;;4946196;29;20435;-82
2021/05/03 09:43:33;;;;;;;5.07;4.67;;;12.00;99.90;;;;;;4961737;28;20937;-82
2021/05/03 09:45:59;;;;;;;5.50;5.00;;;11.80;99.90;;;;;;4995152;28;20437;-81
2021/05/03 09:48:26;;;;;;;5.53;4.20;;;12.20;99.70;;;;;;4979823;28;20441;-81
2021/05/03 09:50:52;;;;;;;4.30;4.00;;;12.20;97.50;;;;;;4984222;28;20445;-81
2021/05/03 09:53:18;;;;;;;4.97;4.43;;;12.10;97.60;;;;;;5005298;28;20536;-80
2021/05/03 09:55:46;;;;;;;5.23;4.83;;;11.90;98.00;;;;;;5040233;28;20191;-82
2021/05/03 09:58:17;;;;;;;6.17;4.23;;;11.60;99.90;;;;;;5051142;28;20240;-81
2021/05/03 10:00:45;;;;;;;9.70;5.40;;;11.80;99.90;;;;;;5057063;28;20453;-81
2021/05/03 10:03:47;;;;;;;8.50;5.20;;;12.50;99.90;;;;;;5049278;28;20442;-82
2021/05/03 10:06:16;;;;;;;5.50;5.00;;;12.80;99.90;;;;;;5057456;28;20461;-82
2021/05/03 10:08:45;;;;;;;5.10;4.60;;;12.80;99.60;;;;;;5029075;28;20466;-81
2021/05/03 10:11:15;;;;;;;5.00;4.50;;;12.50;97.80;;;;;;5028720;28;20460;-80
2021/05/03 10:13:44;;;;;;;4.50;4.03;;;12.70;96.70;;;;;;5125447;28;20467;-82
2021/05/03 10:16:13;;;;;;;4.50;4.10;;;13.10;97.10;;;;;;5125195;28;20421;-82
2021/05/03 10:18:41;;;;;;;6.03;5.43;;;13.10;93.10;;;;;;5096822;28;20416;-82
2021/05/03 10:21:09;;;;;;;6.07;4.87;;;12.90;93.50;;;;;;5074490;28;20416;-81
2021/05/03 10:23:45;;;;;;;7.23;4.60;;;12.70;92.00;;;;;;5093154;28;20908;-80
2021/05/03 10:26:15;;;;;;;6.53;4.83;;;13.30;92.00;;;;;;5081942;28;20432;-79
2021/05/03 10:29:00;;;;;;;4.53;4.10;;;13.70;92.90;;;;;;5082260;28;20424;-81
2021/05/03 10:31:27;;;;;;;5.53;5.03;;;13.80;91.60;;;;;;5091992;28;20489;-80
2021/05/03 10:33:53;;;;;;;4.40;4.00;;;13.20;92.00;;;;;;5104633;28;20905;-82
2021/05/03 10:36:32;;;;;;;6.50;5.40;;;13.50;91.30;;;;;;5088546;28;20429;-82
2021/05/03 10:38:58;;;;;;;6.70;4.60;;;13.90;91.60;;;;;;5100118;28;20503;-82
2021/05/03 10:41:31;;;;;;;7.07;5.37;;;14.20;93.90;;;;;;5103121;28;20396;-81
2021/05/03 10:44:21;;;;;;;4.60;3.90;;;14.40;91.50;;;;;;5098947;28;20218;-81
2021/05/03 10:46:53;;;;;;;4.40;4.00;;;14.60;90.40;;;;;;5123381;28;20400;-81
2021/05/03 10:49:32;;;;;;;6.03;5.43;;;14.60;87.20;;;;;;5105663;28;20430;-80
2021/05/03 10:52:03;;;;;;;4.73;4.20;;;14.80;88.10;;;;;;5106996;28;20459;-81
2021/05/03 10:54:36;;;;;;;4.53;3.93;;;14.60;84.00;;;;;;5123410;28;20411;-81
2021/05/03 10:57:19;;;;;;;4.33;3.93;;;14.70;83.50;;;;;;5120119;28;20420;-81
2021/05/03 10:59:47;;;;;;;5.47;4.40;;;14.80;81.60;;;;;;5117085;28;20494;-81
2021/05/03 11:02:17;;;;;;;11.37;4.70;;;14.50;83.60;;;;;;5114287;28;20482;-81
2021/05/03 11:05:22;;;;;;;4.70;4.10;;;14.40;87.00;;;;;;5099574;28;20547;-80
2021/05/03 11:08:19;;;;;;;6.07;3.80;;;14.20;82.90;;;;;;5108937;28;20540;-81
2021/05/03 11:11:02;;;;;;;4.20;3.80;;;13.70;85.90;;;;;;5091789;28;20412;-80
2021/05/03 11:13:49;;;;;;;4.40;4.00;;;13.60;89.90;;;;;;5118961;28;20455;-81
2021/05/03 11:16:44;;;;;;;5.07;3.90;;;13.50;90.70;;;;;;5123904;28;20423;-81
2021/05/03 11:19:53;;;;;;;8.93;4.37;;;13.50;90.50;;;;;;5125271;28;20439;-81
2021/05/03 11:22:23;;;;;;;4.27;3.87;;;13.50;91.00;;;;;;5130521;28;20772;-81
2021/05/03 11:24:55;;;;;;;5.43;3.80;;;13.50;89.60;;;;;;5125268;28;20515;-80
2021/05/03 11:28:12;;;;;;;4.07;3.77;;;13.40;89.50;;;;;;5109284;28;20505;-80
2021/05/03 11:30:36;;;;;;;4.60;3.70;;;13.30;90.20;;;;;;5126103;28;20918;-78
2021/05/03 11:33:08;;;;;;;4.90;4.23;;;13.00;87.40;;;;;;5098875;27;20941;-80
2021/05/03 11:38:27;;;;;;;4.43;3.80;;;13.00;91.90;;;;;;5132577;27;20852;-81
2021/05/03 11:41:13;;;;;;;6.87;4.80;;;14.50;87.60;;;;;;5127455;27;20411;-80
2021/05/03 11:46:32;;;;;;;6.40;4.10;;;15.10;80.90;;;;;;5127205;27;20411;-81
2021/05/03 11:49:25;;;;;;;4.13;3.73;;;15.20;79.20;;;;;;5073716;28;20430;-81
2021/05/03 11:51:57;;;;;;;6.40;3.40;;;15.40;77.00;;;;;;5084977;28;20475;-81
2021/05/03 11:54:28;;;;;;;4.87;3.73;;;15.50;78.70;;;;;;5079098;28;20421;-81
2021/05/03 11:57:02;;;;;;;3.60;3.30;;;15.10;74.70;;;;;;5085587;28;20440;-82
2021/05/03 11:59:32;;;;;;;5.97;3.77;;;14.50;74.50;;;;;;5075229;28;20433;-80
2021/05/03 12:02:09;;;;;;;4.40;4.00;;;14.10;74.20;;;;;;5074976;28;20451;-80
2021/05/03 12:04:38;;;;;;;4.87;4.47;;;14.90;76.50;;;;;;5077706;28;20413;-80
2021/05/03 12:07:22;;;;;;;4.03;3.63;;;15.40;77.60;;;;;;5083478;28;20485;-80
2021/05/03 12:10:00;;;;;;;3.93;3.53;;;14.70;75.40;;;;;;5068839;28;20448;-81
2021/05/03 12:12:32;;;;;;;3.73;3.43;;;16.00;75.10;;;;;;5075914;28;20932;-79
2021/05/03 12:14:58;;;;;;;5.43;4.93;;;16.70;75.10;;;;;;5088633;28;20420;-78
2021/05/03 12:17:27;;;;;;;4.03;3.73;;;15.70;77.20;;;;;;5084138;28;20920;-80
2021/05/03 12:20:05;;;;;;;3.67;3.00;;;16.90;76.30;;;;;;5116572;28;20413;-78
2021/05/03 12:22:31;;;;;;;4.93;3.80;;;14.90;66.00;;;;;;5107272;27;20475;-79
2021/05/03 12:25:06;;;;;;;4.07;3.77;;;15.10;63.00;;;;;;5107366;28;20429;-79
2021/05/03 12:27:33;;;;;;;3.50;3.20;;;15.50;65.50;;;;;;5115483;28;20423;-78
2021/05/03 12:30:00;;;;;;;4.30;3.87;;;15.50;66.60;;;;;;5101223;27;20419;-79
2021/05/03 12:32:36;;;;;;;3.70;3.40;;;14.90;67.20;;;;;;5128544;27;20469;-80
2021/05/03 12:35:08;;;;;;;3.00;2.80;;;14.80;68.90;;;;;;5119998;27;20415;-80
2021/05/03 12:37:34;;;;;;;4.00;3.70;;;14.70;71.10;;;;;;5112860;28;20895;-80
2021/05/03 12:40:18;;;;;;;3.77;3.37;;;14.40;75.10;;;;;;5136897;27;20520;-80
2021/05/03 12:42:50;;;;;;;3.57;3.37;;;14.80;73.70;;;;;;5097988;27;20426;-80
2021/05/03 12:45:41;;;;;;;4.23;3.83;;;14.80;76.80;;;;;;5129071;27;20423;-80
2021/05/03 12:51:08;;;;;;;5.70;3.73;;;15.20;74.40;;;;;;5142007;27;20413;-81
2021/05/03 12:53:58;;;;;;;4.13;3.43;;;14.70;73.30;;;;;;5135953;27;20449;-81
2021/05/03 12:56:31;;;;;;;8.80;3.67;;;14.80;76.00;;;;;;5165020;27;20419;-81
2021/05/03 12:59:09;;;;;;;4.43;4.03;;;15.10;76.00;;;;;;5113607;27;20891;-81
2021/05/03 13:01:41;;;;;;;3.70;3.40;;;16.10;75.80;;;;;;5149818;27;20418;-79
2021/05/03 13:04:39;;;;;;;3.70;3.40;;;16.90;71.30;;;;;;5129546;27;20449;-81
2021/05/03 13:07:21;;;;;;;4.03;3.70;;;16.50;68.40;;;;;;5139233;27;20511;-81
2021/05/03 13:29:16;;;;;;;4.13;3.70;;;17.80;60.70;;;;;;5139991;27;20391;-82
2021/05/03 13:31:44;;;;;;;3.50;3.20;;;16.20;59.90;;;;;;5088781;28;20524;-80
2021/05/03 13:34:12;;;;;;;5.23;4.20;;;15.30;65.10;;;;;;5069670;28;20413;-82
2021/05/03 13:36:40;;;;;;;4.80;3.77;;;14.70;66.70;;;;;;5086062;28;20425;-80
2021/05/03 13:39:08;;;;;;;3.43;3.17;;;14.70;69.20;;;;;;5084170;28;20405;-83
2021/05/03 13:41:41;;;;;;;4.63;4.13;;;14.70;71.80;;;;;;5103406;28;20431;-81